Aeroporto :
LOGIN :

Iscrizione | Disclaimer

   EN    FR    IT 

 










Sommario :    VFR   VFR Marginale   IFR   IFR Intensivo   IFR Molto Intensivo
Visibilità : 
Base nubi : 
>= 8 km
>= 3000ft
5 / 8 km
1000 / 3000 ft
1500m / 5 km
500 / 1000 ft
800 / 1500m
200 / 500 ft
< 800m
< 200 ft
Simboli :   Temporali  Nebbia  Neve Forte  Precipitazioni Forti  Vento > 20 kt
SIGMETs :   Varie  Temporali  Ghiacco  Turbolenza  Onda orograficha  Ceneri Vulcaniche






- Altitudine del aeroporto : 112 ft
- Codice IATA : KIR


EIKY - Kerry Farranfore

ULTIMO METAR :
  • 171200Z 27013G24KT 240V310 9999 -RA BKN030CB 06/03 Q1009

METARs OBSOLETI :
  • 171100Z 27008KT 250V320 9999 -RA SCT020CB BKN028 06/03 Q1008
  • 171030Z 28009G21KT 240V340 9999 -RA SCT018CB BKN034 07/03 Q1007
  • 171000Z 28008KT 250V310 9999 FEW014 BKN034 BKN041 07/04 Q1006

TAF TAF EIKY
Valido dal 17 a 12 ore il 17 a 21 ore UTC


171100Z 1712/1721 27012G22KT 9999 SCT015 BKN035
TEMPO 1712/1718 27020G30KT 4000 SHRAGS BKN012 BKN018CB



MetMap, La meteo Aeronautica in un colpo d'occhio ! - Copyright ORBIFLY Dicembre 2007 - Disclaimer

ORBIFLY MET'MAP TEAM :

Programmazione e sviluppo : Alexandra Zaïnal
Concezione : Baudouin d'Aumeries
Aiuto per la programmazione : Marc-Olivier Méhu
Supporto tecnico e logistico : Manuel Goepfert
Aiuto per la traduzione : Arnaldo La Scala

Contatto : metmap@orbifly.com




FONTI E CREDITI :

   NOAA